sensor_id;sensor_type;location;lat;lon;timestamp;P1;durP1;ratioP1;P2;durP2;ratioP2
48363;SDS011;34170;54.364;18.582;2023-02-10T00:01:33;22.77;;;9.15;;
48363;SDS011;34170;54.364;18.582;2023-02-10T00:04:01;22.02;;;9.13;;
48363;SDS011;34170;54.364;18.582;2023-02-10T00:06:30;22.05;;;10.38;;
48363;SDS011;34170;54.364;18.582;2023-02-10T00:08:58;26.15;;;10.82;;
48363;SDS011;34170;54.364;18.582;2023-02-10T00:11:28;23.52;;;10.88;;
48363;SDS011;34170;54.364;18.582;2023-02-10T00:14:15;25.13;;;10.25;;
48363;SDS011;34170;54.364;18.582;2023-02-10T00:16:44;24.60;;;10.48;;
48363;SDS011;34170;54.364;18.582;2023-02-10T00:19:12;21.17;;;9.38;;
48363;SDS011;34170;54.364;18.582;2023-02-10T00:21:39;25.40;;;10.88;;
48363;SDS011;34170;54.364;18.582;2023-02-10T00:24:06;23.88;;;10.25;;
48363;SDS011;34170;54.364;18.582;2023-02-10T00:26:34;26.15;;;11.23;;
48363;SDS011;34170;54.364;18.582;2023-02-10T00:29:02;27.35;;;11.07;;
48363;SDS011;34170;54.364;18.582;2023-02-10T00:31:29;24.20;;;10.63;;
48363;SDS011;34170;54.364;18.582;2023-02-10T00:33:57;24.77;;;10.10;;
48363;SDS011;34170;54.364;18.582;2023-02-10T00:36:26;22.48;;;11.13;;
48363;SDS011;34170;54.364;18.582;2023-02-10T00:38:54;28.30;;;10.65;;
48363;SDS011;34170;54.364;18.582;2023-02-10T00:41:22;24.67;;;11.30;;
48363;SDS011;34170;54.364;18.582;2023-02-10T00:43:50;24.40;;;10.20;;
48363;SDS011;34170;54.364;18.582;2023-02-10T00:46:19;26.90;;;11.73;;
48363;SDS011;34170;54.364;18.582;2023-02-10T00:48:47;31.17;;;12.98;;
48363;SDS011;34170;54.364;18.582;2023-02-10T00:51:16;29.35;;;11.25;;
48363;SDS011;34170;54.364;18.582;2023-02-10T00:53:43;25.85;;;11.82;;
48363;SDS011;34170;54.364;18.582;2023-02-10T00:56:11;24.70;;;11.43;;
48363;SDS011;34170;54.364;18.582;2023-02-10T00:58:39;36.30;;;12.55;;
48363;SDS011;34170;54.364;18.582;2023-02-10T01:01:08;27.42;;;12.15;;
48363;SDS011;34170;54.364;18.582;2023-02-10T01:03:36;30.80;;;12.50;;
48363;SDS011;34170;54.364;18.582;2023-02-10T01:06:05;31.60;;;13.52;;
48363;SDS011;34170;54.364;18.582;2023-02-10T01:08:34;30.83;;;14.10;;
48363;SDS011;34170;54.364;18.582;2023-02-10T01:11:02;34.45;;;13.60;;
48363;SDS011;34170;54.364;18.582;2023-02-10T01:13:35;35.75;;;14.20;;
48363;SDS011;34170;54.364;18.582;2023-02-10T01:16:04;37.28;;;14.25;;
48363;SDS011;34170;54.364;18.582;2023-02-10T01:18:36;32.97;;;14.70;;
48363;SDS011;34170;54.364;18.582;2023-02-10T01:21:05;32.80;;;13.80;;
48363;SDS011;34170;54.364;18.582;2023-02-10T01:23:34;33.80;;;13.68;;
48363;SDS011;34170;54.364;18.582;2023-02-10T01:26:03;33.10;;;14.80;;
48363;SDS011;34170;54.364;18.582;2023-02-10T01:28:31;33.38;;;12.32;;
48363;SDS011;34170;54.364;18.582;2023-02-10T01:31:03;30.75;;;13.63;;
48363;SDS011;34170;54.364;18.582;2023-02-10T01:33:42;31.10;;;12.55;;
48363;SDS011;34170;54.364;18.582;2023-02-10T01:36:14;32.50;;;13.88;;
48363;SDS011;34170;54.364;18.582;2023-02-10T01:38:44;37.78;;;14.25;;
48363;SDS011;34170;54.364;18.582;2023-02-10T01:41:13;37.55;;;15.25;;
48363;SDS011;34170;54.364;18.582;2023-02-10T01:43:52;34.42;;;13.93;;
48363;SDS011;34170;54.364;18.582;2023-02-10T01:46:27;29.88;;;14.10;;
48363;SDS011;34170;54.364;18.582;2023-02-10T01:48:55;30.83;;;14.27;;
48363;SDS011;34170;54.364;18.582;2023-02-10T01:51:31;35.15;;;15.10;;
48363;SDS011;34170;54.364;18.582;2023-02-10T01:54:04;31.33;;;13.73;;
48363;SDS011;34170;54.364;18.582;2023-02-10T01:56:37;31.73;;;14.30;;
48363;SDS011;34170;54.364;18.582;2023-02-10T01:59:04;32.17;;;13.68;;
48363;SDS011;34170;54.364;18.582;2023-02-10T02:01:33;31.00;;;13.32;;
48363;SDS011;34170;54.364;18.582;2023-02-10T02:04:00;32.70;;;13.43;;
48363;SDS011;34170;54.364;18.582;2023-02-10T02:06:29;29.50;;;13.25;;
48363;SDS011;34170;54.364;18.582;2023-02-10T02:08:58;28.58;;;12.15;;
48363;SDS011;34170;54.364;18.582;2023-02-10T02:14:15;34.13;;;13.60;;
48363;SDS011;34170;54.364;18.582;2023-02-10T02:25:49;29.73;;;13.32;;
48363;SDS011;34170;54.364;18.582;2023-02-10T02:28:37;29.40;;;12.75;;
48363;SDS011;34170;54.364;18.582;2023-02-10T02:34:00;33.60;;;14.85;;
48363;SDS011;34170;54.364;18.582;2023-02-10T02:36:30;34.70;;;13.30;;
48363;SDS011;34170;54.364;18.582;2023-02-10T02:39:04;29.80;;;12.07;;
48363;SDS011;34170;54.364;18.582;2023-02-10T02:41:33;30.60;;;13.15;;
48363;SDS011;34170;54.364;18.582;2023-02-10T02:44:03;38.47;;;14.02;;
48363;SDS011;34170;54.364;18.582;2023-02-10T02:46:35;30.50;;;12.68;;
48363;SDS011;34170;54.364;18.582;2023-02-10T02:49:38;32.67;;;12.88;;
48363;SDS011;34170;54.364;18.582;2023-02-10T02:52:11;27.23;;;12.00;;
48363;SDS011;34170;54.364;18.582;2023-02-10T02:55:28;31.67;;;13.50;;
48363;SDS011;34170;54.364;18.582;2023-02-10T03:00:31;33.50;;;12.70;;
48363;SDS011;34170;54.364;18.582;2023-02-10T03:03:01;34.13;;;12.82;;
48363;SDS011;34170;54.364;18.582;2023-02-10T03:05:31;35.55;;;13.73;;
48363;SDS011;34170;54.364;18.582;2023-02-10T03:07:59;30.70;;;12.52;;
48363;SDS011;34170;54.364;18.582;2023-02-10T03:10:27;33.33;;;13.30;;
48363;SDS011;34170;54.364;18.582;2023-02-10T03:12:54;31.23;;;13.43;;
48363;SDS011;34170;54.364;18.582;2023-02-10T03:15:22;29.58;;;12.65;;
48363;SDS011;34170;54.364;18.582;2023-02-10T03:17:49;34.92;;;12.50;;
48363;SDS011;34170;54.364;18.582;2023-02-10T03:20:17;31.17;;;12.50;;
48363;SDS011;34170;54.364;18.582;2023-02-10T03:22:44;29.35;;;12.27;;
48363;SDS011;34170;54.364;18.582;2023-02-10T03:25:12;36.13;;;13.38;;
48363;SDS011;34170;54.364;18.582;2023-02-10T03:27:39;32.22;;;13.70;;
48363;SDS011;34170;54.364;18.582;2023-02-10T03:30:07;33.35;;;12.43;;
48363;SDS011;34170;54.364;18.582;2023-02-10T03:32:35;25.58;;;11.77;;
48363;SDS011;34170;54.364;18.582;2023-02-10T03:35:02;36.53;;;12.48;;
48363;SDS011;34170;54.364;18.582;2023-02-10T03:37:30;29.13;;;12.77;;
48363;SDS011;34170;54.364;18.582;2023-02-10T03:39:57;32.35;;;13.15;;
48363;SDS011;34170;54.364;18.582;2023-02-10T03:42:25;30.00;;;12.40;;
48363;SDS011;34170;54.364;18.582;2023-02-10T03:44:52;31.63;;;11.27;;
48363;SDS011;34170;54.364;18.582;2023-02-10T03:47:20;30.73;;;11.85;;
48363;SDS011;34170;54.364;18.582;2023-02-10T03:49:47;34.20;;;12.43;;
48363;SDS011;34170;54.364;18.582;2023-02-10T03:52:14;38.22;;;13.27;;
48363;SDS011;34170;54.364;18.582;2023-02-10T03:54:42;31.73;;;12.60;;
48363;SDS011;34170;54.364;18.582;2023-02-10T03:57:10;30.38;;;12.52;;
48363;SDS011;34170;54.364;18.582;2023-02-10T03:59:38;32.67;;;13.20;;
48363;SDS011;34170;54.364;18.582;2023-02-10T04:02:05;28.52;;;12.18;;
48363;SDS011;34170;54.364;18.582;2023-02-10T04:04:33;30.67;;;12.15;;
48363;SDS011;34170;54.364;18.582;2023-02-10T04:07:01;32.40;;;12.02;;
48363;SDS011;34170;54.364;18.582;2023-02-10T04:09:30;26.88;;;11.32;;
48363;SDS011;34170;54.364;18.582;2023-02-10T04:11:57;31.73;;;12.35;;
48363;SDS011;34170;54.364;18.582;2023-02-10T04:14:24;35.67;;;12.60;;
48363;SDS011;34170;54.364;18.582;2023-02-10T04:16:52;26.65;;;11.82;;
48363;SDS011;34170;54.364;18.582;2023-02-10T04:19:19;28.23;;;12.07;;
48363;SDS011;34170;54.364;18.582;2023-02-10T04:21:47;29.25;;;12.13;;
48363;SDS011;34170;54.364;18.582;2023-02-10T04:24:15;28.60;;;11.20;;
48363;SDS011;34170;54.364;18.582;2023-02-10T04:26:43;33.53;;;12.05;;
48363;SDS011;34170;54.364;18.582;2023-02-10T04:29:10;31.23;;;11.82;;
48363;SDS011;34170;54.364;18.582;2023-02-10T04:31:38;22.75;;;10.68;;
48363;SDS011;34170;54.364;18.582;2023-02-10T04:34:05;29.75;;;11.65;;
48363;SDS011;34170;54.364;18.582;2023-02-10T04:36:33;34.53;;;13.05;;
48363;SDS011;34170;54.364;18.582;2023-02-10T04:39:00;34.42;;;12.38;;
48363;SDS011;34170;54.364;18.582;2023-02-10T04:41:28;29.33;;;12.80;;
48363;SDS011;34170;54.364;18.582;2023-02-10T04:43:55;30.13;;;12.05;;
48363;SDS011;34170;54.364;18.582;2023-02-10T04:46:23;31.98;;;12.30;;
48363;SDS011;34170;54.364;18.582;2023-02-10T04:48:51;28.77;;;11.45;;
48363;SDS011;34170;54.364;18.582;2023-02-10T04:51:18;32.42;;;12.68;;
48363;SDS011;34170;54.364;18.582;2023-02-10T04:53:45;31.70;;;12.10;;
48363;SDS011;34170;54.364;18.582;2023-02-10T04:56:15;28.33;;;11.98;;
48363;SDS011;34170;54.364;18.582;2023-02-10T04:58:43;30.30;;;12.27;;
48363;SDS011;34170;54.364;18.582;2023-02-10T05:01:10;32.90;;;12.75;;
48363;SDS011;34170;54.364;18.582;2023-02-10T05:03:38;36.65;;;12.70;;
48363;SDS011;34170;54.364;18.582;2023-02-10T05:06:09;35.55;;;12.13;;
48363;SDS011;34170;54.364;18.582;2023-02-10T05:08:39;35.80;;;13.15;;
48363;SDS011;34170;54.364;18.582;2023-02-10T05:11:09;38.00;;;13.25;;
48363;SDS011;34170;54.364;18.582;2023-02-10T05:13:41;33.10;;;12.57;;
48363;SDS011;34170;54.364;18.582;2023-02-10T05:16:09;33.05;;;12.93;;
48363;SDS011;34170;54.364;18.582;2023-02-10T05:18:38;28.63;;;12.55;;
48363;SDS011;34170;54.364;18.582;2023-02-10T05:21:09;35.50;;;13.75;;
48363;SDS011;34170;54.364;18.582;2023-02-10T05:23:39;30.00;;;13.57;;
48363;SDS011;34170;54.364;18.582;2023-02-10T05:26:07;34.28;;;13.05;;
48363;SDS011;34170;54.364;18.582;2023-02-10T05:28:35;39.00;;;14.07;;
48363;SDS011;34170;54.364;18.582;2023-02-10T05:31:02;35.20;;;13.73;;
48363;SDS011;34170;54.364;18.582;2023-02-10T05:33:34;33.58;;;13.23;;
48363;SDS011;34170;54.364;18.582;2023-02-10T05:36:01;35.38;;;14.20;;
48363;SDS011;34170;54.364;18.582;2023-02-10T05:38:30;39.03;;;13.63;;
48363;SDS011;34170;54.364;18.582;2023-02-10T05:40:57;32.30;;;12.55;;
48363;SDS011;34170;54.364;18.582;2023-02-10T05:43:25;33.88;;;13.52;;
48363;SDS011;34170;54.364;18.582;2023-02-10T05:45:52;42.22;;;14.25;;
48363;SDS011;34170;54.364;18.582;2023-02-10T05:48:20;30.20;;;12.65;;
48363;SDS011;34170;54.364;18.582;2023-02-10T05:50:50;37.75;;;13.45;;
48363;SDS011;34170;54.364;18.582;2023-02-10T05:53:18;36.95;;;13.80;;
48363;SDS011;34170;54.364;18.582;2023-02-10T05:55:46;43.08;;;13.93;;
48363;SDS011;34170;54.364;18.582;2023-02-10T05:58:14;39.33;;;13.90;;
48363;SDS011;34170;54.364;18.582;2023-02-10T06:00:41;34.92;;;12.95;;
48363;SDS011;34170;54.364;18.582;2023-02-10T06:03:09;34.45;;;13.95;;
48363;SDS011;34170;54.364;18.582;2023-02-10T06:05:36;32.78;;;13.27;;
48363;SDS011;34170;54.364;18.582;2023-02-10T06:08:04;35.97;;;14.48;;
48363;SDS011;34170;54.364;18.582;2023-02-10T06:10:31;41.22;;;13.90;;
48363;SDS011;34170;54.364;18.582;2023-02-10T06:12:59;36.05;;;13.43;;
48363;SDS011;34170;54.364;18.582;2023-02-10T06:15:26;35.80;;;12.93;;
48363;SDS011;34170;54.364;18.582;2023-02-10T06:17:54;41.80;;;13.18;;
48363;SDS011;34170;54.364;18.582;2023-02-10T06:20:21;34.53;;;12.23;;
48363;SDS011;34170;54.364;18.582;2023-02-10T06:22:51;35.58;;;12.32;;
48363;SDS011;34170;54.364;18.582;2023-02-10T06:25:18;36.22;;;13.65;;
48363;SDS011;34170;54.364;18.582;2023-02-10T06:27:46;33.55;;;13.40;;
48363;SDS011;34170;54.364;18.582;2023-02-10T06:30:13;36.70;;;14.77;;
48363;SDS011;34170;54.364;18.582;2023-02-10T06:32:41;34.58;;;13.10;;
48363;SDS011;34170;54.364;18.582;2023-02-10T06:35:08;36.25;;;13.45;;
48363;SDS011;34170;54.364;18.582;2023-02-10T06:37:36;35.15;;;13.50;;
48363;SDS011;34170;54.364;18.582;2023-02-10T06:40:04;45.97;;;13.43;;
48363;SDS011;34170;54.364;18.582;2023-02-10T06:42:32;34.67;;;11.93;;
48363;SDS011;34170;54.364;18.582;2023-02-10T06:45:00;36.17;;;11.65;;
48363;SDS011;34170;54.364;18.582;2023-02-10T06:47:27;35.55;;;11.27;;
48363;SDS011;34170;54.364;18.582;2023-02-10T06:49:55;32.38;;;11.13;;
48363;SDS011;34170;54.364;18.582;2023-02-10T06:52:22;33.45;;;11.25;;
48363;SDS011;34170;54.364;18.582;2023-02-10T06:54:51;31.30;;;9.93;;
48363;SDS011;34170;54.364;18.582;2023-02-10T06:57:18;35.28;;;12.02;;
48363;SDS011;34170;54.364;18.582;2023-02-10T06:59:46;39.95;;;11.43;;
48363;SDS011;34170;54.364;18.582;2023-02-10T07:02:13;31.70;;;10.75;;
48363;SDS011;34170;54.364;18.582;2023-02-10T07:04:41;32.35;;;10.57;;
48363;SDS011;34170;54.364;18.582;2023-02-10T07:07:08;32.90;;;10.40;;
48363;SDS011;34170;54.364;18.582;2023-02-10T07:09:36;31.15;;;10.32;;
48363;SDS011;34170;54.364;18.582;2023-02-10T07:12:04;26.80;;;9.88;;
48363;SDS011;34170;54.364;18.582;2023-02-10T07:14:32;33.72;;;11.40;;
48363;SDS011;34170;54.364;18.582;2023-02-10T07:17:00;26.92;;;10.73;;
48363;SDS011;34170;54.364;18.582;2023-02-10T07:19:27;29.23;;;9.25;;
48363;SDS011;34170;54.364;18.582;2023-02-10T07:21:55;30.95;;;9.98;;
48363;SDS011;34170;54.364;18.582;2023-02-10T07:24:22;38.33;;;9.85;;
48363;SDS011;34170;54.364;18.582;2023-02-10T07:26:50;25.52;;;8.88;;
48363;SDS011;34170;54.364;18.582;2023-02-10T07:29:17;22.88;;;8.32;;
48363;SDS011;34170;54.364;18.582;2023-02-10T07:31:45;31.90;;;10.07;;
48363;SDS011;34170;54.364;18.582;2023-02-10T07:34:12;31.73;;;9.18;;
48363;SDS011;34170;54.364;18.582;2023-02-10T07:36:39;26.92;;;9.43;;
48363;SDS011;34170;54.364;18.582;2023-02-10T07:39:07;30.63;;;9.07;;
48363;SDS011;34170;54.364;18.582;2023-02-10T07:41:35;29.50;;;8.55;;
48363;SDS011;34170;54.364;18.582;2023-02-10T07:44:03;28.27;;;8.05;;
48363;SDS011;34170;54.364;18.582;2023-02-10T07:46:31;29.35;;;8.82;;
48363;SDS011;34170;54.364;18.582;2023-02-10T07:48:58;29.35;;;8.38;;
48363;SDS011;34170;54.364;18.582;2023-02-10T07:51:25;27.30;;;8.57;;
48363;SDS011;34170;54.364;18.582;2023-02-10T07:53:53;26.73;;;8.50;;
48363;SDS011;34170;54.364;18.582;2023-02-10T07:56:20;24.08;;;8.95;;
48363;SDS011;34170;54.364;18.582;2023-02-10T07:58:48;19.95;;;7.80;;
48363;SDS011;34170;54.364;18.582;2023-02-10T08:01:15;26.85;;;7.40;;
48363;SDS011;34170;54.364;18.582;2023-02-10T08:03:43;28.45;;;8.32;;
48363;SDS011;34170;54.364;18.582;2023-02-10T08:06:11;26.80;;;8.70;;
48363;SDS011;34170;54.364;18.582;2023-02-10T08:08:38;26.13;;;7.85;;
48363;SDS011;34170;54.364;18.582;2023-02-10T08:11:05;23.98;;;8.35;;
48363;SDS011;34170;54.364;18.582;2023-02-10T08:13:33;28.58;;;8.52;;
48363;SDS011;34170;54.364;18.582;2023-02-10T08:16:03;25.80;;;7.47;;
48363;SDS011;34170;54.364;18.582;2023-02-10T08:18:32;22.45;;;7.28;;
48363;SDS011;34170;54.364;18.582;2023-02-10T08:20:59;26.60;;;7.72;;
48363;SDS011;34170;54.364;18.582;2023-02-10T08:23:28;22.40;;;8.70;;
48363;SDS011;34170;54.364;18.582;2023-02-10T08:25:55;21.17;;;7.00;;
48363;SDS011;34170;54.364;18.582;2023-02-10T08:28:23;24.80;;;8.15;;
48363;SDS011;34170;54.364;18.582;2023-02-10T08:30:51;26.25;;;7.65;;
48363;SDS011;34170;54.364;18.582;2023-02-10T08:33:18;26.00;;;7.85;;
48363;SDS011;34170;54.364;18.582;2023-02-10T08:35:46;21.73;;;7.65;;
48363;SDS011;34170;54.364;18.582;2023-02-10T08:38:14;20.20;;;6.88;;
48363;SDS011;34170;54.364;18.582;2023-02-10T08:40:41;29.33;;;8.15;;
48363;SDS011;34170;54.364;18.582;2023-02-10T08:43:09;21.90;;;7.70;;
48363;SDS011;34170;54.364;18.582;2023-02-10T08:45:39;26.63;;;7.65;;
48363;SDS011;34170;54.364;18.582;2023-02-10T08:48:07;22.65;;;7.20;;
48363;SDS011;34170;54.364;18.582;2023-02-10T08:50:34;26.63;;;7.75;;
48363;SDS011;34170;54.364;18.582;2023-02-10T08:53:02;18.10;;;6.63;;
48363;SDS011;34170;54.364;18.582;2023-02-10T08:55:29;23.55;;;7.43;;
48363;SDS011;34170;54.364;18.582;2023-02-10T08:57:57;21.15;;;6.93;;
48363;SDS011;34170;54.364;18.582;2023-02-10T09:00:24;19.42;;;6.97;;
48363;SDS011;34170;54.364;18.582;2023-02-10T09:02:52;21.08;;;6.97;;
48363;SDS011;34170;54.364;18.582;2023-02-10T09:05:20;23.33;;;6.18;;
48363;SDS011;34170;54.364;18.582;2023-02-10T09:07:47;27.00;;;7.45;;
48363;SDS011;34170;54.364;18.582;2023-02-10T09:10:15;24.33;;;7.65;;
48363;SDS011;34170;54.364;18.582;2023-02-10T09:12:42;21.83;;;7.30;;
48363;SDS011;34170;54.364;18.582;2023-02-10T09:15:10;22.02;;;6.93;;
48363;SDS011;34170;54.364;18.582;2023-02-10T09:17:38;21.60;;;6.55;;
48363;SDS011;34170;54.364;18.582;2023-02-10T09:20:05;24.42;;;7.18;;
48363;SDS011;34170;54.364;18.582;2023-02-10T09:22:33;23.38;;;6.68;;
48363;SDS011;34170;54.364;18.582;2023-02-10T09:25:01;29.08;;;6.68;;
48363;SDS011;34170;54.364;18.582;2023-02-10T09:27:28;24.77;;;7.45;;
48363;SDS011;34170;54.364;18.582;2023-02-10T09:29:56;33.20;;;8.63;;
48363;SDS011;34170;54.364;18.582;2023-02-10T09:32:23;23.48;;;7.03;;
48363;SDS011;34170;54.364;18.582;2023-02-10T09:34:51;25.38;;;7.78;;
48363;SDS011;34170;54.364;18.582;2023-02-10T09:37:19;24.33;;;7.40;;
48363;SDS011;34170;54.364;18.582;2023-02-10T09:39:48;27.42;;;7.50;;
48363;SDS011;34170;54.364;18.582;2023-02-10T09:42:36;28.08;;;8.38;;
48363;SDS011;34170;54.364;18.582;2023-02-10T09:45:21;25.85;;;8.18;;
48363;SDS011;34170;54.364;18.582;2023-02-10T09:47:52;27.45;;;7.60;;
48363;SDS011;34170;54.364;18.582;2023-02-10T09:50:32;30.77;;;8.15;;
48363;SDS011;34170;54.364;18.582;2023-02-10T09:53:10;22.85;;;7.50;;
48363;SDS011;34170;54.364;18.582;2023-02-10T09:55:44;25.73;;;7.13;;
48363;SDS011;34170;54.364;18.582;2023-02-10T10:01:28;30.38;;;7.38;;
48363;SDS011;34170;54.364;18.582;2023-02-10T10:06:29;33.40;;;7.82;;
48363;SDS011;34170;54.364;18.582;2023-02-10T10:11:47;24.73;;;7.15;;
48363;SDS011;34170;54.364;18.582;2023-02-10T10:14:17;25.27;;;7.72;;
48363;SDS011;34170;54.364;18.582;2023-02-10T10:22:49;24.73;;;6.93;;
48363;SDS011;34170;54.364;18.582;2023-02-10T10:28:28;27.13;;;7.60;;
48363;SDS011;34170;54.364;18.582;2023-02-10T10:33:40;20.88;;;6.70;;
48363;SDS011;34170;54.364;18.582;2023-02-10T10:36:19;26.63;;;7.67;;
48363;SDS011;34170;54.364;18.582;2023-02-10T10:38:51;21.35;;;6.65;;
48363;SDS011;34170;54.364;18.582;2023-02-10T10:41:22;24.15;;;6.78;;
48363;SDS011;34170;54.364;18.582;2023-02-10T10:43:53;23.25;;;7.72;;
48363;SDS011;34170;54.364;18.582;2023-02-10T10:49:01;22.63;;;6.72;;
48363;SDS011;34170;54.364;18.582;2023-02-10T10:51:29;22.92;;;5.32;;
48363;SDS011;34170;54.364;18.582;2023-02-10T10:53:58;16.90;;;4.18;;
48363;SDS011;34170;54.364;18.582;2023-02-10T10:59:18;11.32;;;3.25;;
48363;SDS011;34170;54.364;18.582;2023-02-10T11:01:47;17.05;;;4.47;;
48363;SDS011;34170;54.364;18.582;2023-02-10T11:04:16;14.27;;;2.80;;
48363;SDS011;34170;54.364;18.582;2023-02-10T11:06:46;14.20;;;3.08;;
48363;SDS011;34170;54.364;18.582;2023-02-10T11:11:44;12.65;;;2.58;;
48363;SDS011;34170;54.364;18.582;2023-02-10T11:14:13;13.60;;;2.42;;
48363;SDS011;34170;54.364;18.582;2023-02-10T11:16:46;11.93;;;2.00;;
48363;SDS011;34170;54.364;18.582;2023-02-10T11:19:30;12.15;;;2.25;;
48363;SDS011;34170;54.364;18.582;2023-02-10T11:22:15;15.10;;;3.03;;
48363;SDS011;34170;54.364;18.582;2023-02-10T11:28:04;12.95;;;3.00;;
48363;SDS011;34170;54.364;18.582;2023-02-10T11:30:37;17.50;;;2.55;;
48363;SDS011;34170;54.364;18.582;2023-02-10T11:33:15;13.68;;;2.97;;
48363;SDS011;34170;54.364;18.582;2023-02-10T11:35:49;9.50;;;2.50;;
48363;SDS011;34170;54.364;18.582;2023-02-10T11:38:20;13.95;;;2.97;;
48363;SDS011;34170;54.364;18.582;2023-02-10T11:40:52;15.52;;;2.95;;
48363;SDS011;34170;54.364;18.582;2023-02-10T11:43:21;14.27;;;2.30;;
48363;SDS011;34170;54.364;18.582;2023-02-10T11:45:55;20.38;;;3.28;;
48363;SDS011;34170;54.364;18.582;2023-02-10T11:48:25;17.05;;;2.85;;
48363;SDS011;34170;54.364;18.582;2023-02-10T11:51:05;20.65;;;3.47;;
48363;SDS011;34170;54.364;18.582;2023-02-10T11:53:41;15.43;;;3.17;;
48363;SDS011;34170;54.364;18.582;2023-02-10T11:56:16;23.45;;;3.60;;
48363;SDS011;34170;54.364;18.582;2023-02-10T11:59:13;26.63;;;5.78;;
48363;SDS011;34170;54.364;18.582;2023-02-10T12:01:48;17.38;;;3.47;;
48363;SDS011;34170;54.364;18.582;2023-02-10T12:10:08;16.77;;;3.22;;
48363;SDS011;34170;54.364;18.582;2023-02-10T12:15:56;19.75;;;3.40;;
48363;SDS011;34170;54.364;18.582;2023-02-10T12:21:30;13.45;;;3.03;;
48363;SDS011;34170;54.364;18.582;2023-02-10T12:29:26;15.63;;;3.78;;
48363;SDS011;34170;54.364;18.582;2023-02-10T12:43:15;19.70;;;3.92;;
48363;SDS011;34170;54.364;18.582;2023-02-10T12:46:23;20.73;;;4.07;;
48363;SDS011;34170;54.364;18.582;2023-02-10T12:49:19;24.52;;;4.22;;
48363;SDS011;34170;54.364;18.582;2023-02-10T12:52:21;18.80;;;4.43;;
48363;SDS011;34170;54.364;18.582;2023-02-10T12:55:10;22.40;;;4.28;;
48363;SDS011;34170;54.364;18.582;2023-02-10T12:57:46;20.95;;;4.47;;
48363;SDS011;34170;54.364;18.582;2023-02-10T13:00:24;16.88;;;3.50;;
48363;SDS011;34170;54.364;18.582;2023-02-10T13:05:46;24.08;;;3.30;;
48363;SDS011;34170;54.364;18.582;2023-02-10T13:08:23;18.67;;;3.65;;
48363;SDS011;34170;54.364;18.582;2023-02-10T13:10:58;13.60;;;2.72;;
48363;SDS011;34170;54.364;18.582;2023-02-10T13:13:30;8.13;;;1.75;;
48363;SDS011;34170;54.364;18.582;2023-02-10T13:16:03;14.50;;;2.65;;
48363;SDS011;34170;54.364;18.582;2023-02-10T13:18:38;8.15;;;2.10;;
48363;SDS011;34170;54.364;18.582;2023-02-10T13:21:29;18.33;;;2.90;;
48363;SDS011;34170;54.364;18.582;2023-02-10T13:24:11;11.95;;;2.22;;
48363;SDS011;34170;54.364;18.582;2023-02-10T13:26:50;11.50;;;2.20;;
48363;SDS011;34170;54.364;18.582;2023-02-10T13:29:49;12.02;;;2.42;;
48363;SDS011;34170;54.364;18.582;2023-02-10T13:35:12;17.73;;;3.75;;
48363;SDS011;34170;54.364;18.582;2023-02-10T13:37:44;15.07;;;2.53;;
48363;SDS011;34170;54.364;18.582;2023-02-10T13:41:16;11.85;;;1.92;;
48363;SDS011;34170;54.364;18.582;2023-02-10T13:45:53;12.95;;;3.03;;
48363;SDS011;34170;54.364;18.582;2023-02-10T13:48:31;14.93;;;2.35;;
48363;SDS011;34170;54.364;18.582;2023-02-10T13:51:02;19.77;;;4.38;;
48363;SDS011;34170;54.364;18.582;2023-02-10T14:06:47;15.65;;;3.30;;
48363;SDS011;34170;54.364;18.582;2023-02-10T14:11:47;21.65;;;3.25;;
48363;SDS011;34170;54.364;18.582;2023-02-10T14:14:20;18.83;;;3.47;;
48363;SDS011;34170;54.364;18.582;2023-02-10T14:16:49;20.10;;;3.00;;
48363;SDS011;34170;54.364;18.582;2023-02-10T14:19:29;17.67;;;3.10;;
48363;SDS011;34170;54.364;18.582;2023-02-10T14:21:59;15.75;;;3.42;;
48363;SDS011;34170;54.364;18.582;2023-02-10T14:24:29;16.67;;;2.53;;
48363;SDS011;34170;54.364;18.582;2023-02-10T14:27:16;13.40;;;2.55;;
48363;SDS011;34170;54.364;18.582;2023-02-10T14:29:46;19.17;;;3.13;;
48363;SDS011;34170;54.364;18.582;2023-02-10T14:32:17;16.55;;;3.00;;
48363;SDS011;34170;54.364;18.582;2023-02-10T14:34:53;16.73;;;3.70;;
48363;SDS011;34170;54.364;18.582;2023-02-10T14:37:21;24.80;;;3.13;;
48363;SDS011;34170;54.364;18.582;2023-02-10T14:39:53;14.93;;;2.30;;
48363;SDS011;34170;54.364;18.582;2023-02-10T14:42:22;11.07;;;2.10;;
48363;SDS011;34170;54.364;18.582;2023-02-10T14:44:57;14.82;;;2.40;;
48363;SDS011;34170;54.364;18.582;2023-02-10T14:50:01;17.60;;;2.75;;
48363;SDS011;34170;54.364;18.582;2023-02-10T14:52:30;16.92;;;2.90;;
48363;SDS011;34170;54.364;18.582;2023-02-10T14:55:21;11.88;;;2.85;;
48363;SDS011;34170;54.364;18.582;2023-02-10T14:57:56;23.83;;;3.85;;
48363;SDS011;34170;54.364;18.582;2023-02-10T15:00:51;10.90;;;2.83;;
48363;SDS011;34170;54.364;18.582;2023-02-10T15:03:22;17.45;;;3.72;;
48363;SDS011;34170;54.364;18.582;2023-02-10T15:05:51;13.85;;;2.83;;
48363;SDS011;34170;54.364;18.582;2023-02-10T15:08:24;26.55;;;4.53;;
48363;SDS011;34170;54.364;18.582;2023-02-10T15:11:08;25.48;;;4.57;;
48363;SDS011;34170;54.364;18.582;2023-02-10T15:13:45;18.95;;;3.60;;
48363;SDS011;34170;54.364;18.582;2023-02-10T15:16:15;29.55;;;6.05;;
48363;SDS011;34170;54.364;18.582;2023-02-10T15:18:45;22.83;;;5.22;;
48363;SDS011;34170;54.364;18.582;2023-02-10T15:21:26;21.80;;;4.38;;
48363;SDS011;34170;54.364;18.582;2023-02-10T15:23:58;21.05;;;4.85;;
48363;SDS011;34170;54.364;18.582;2023-02-10T15:26:26;25.70;;;4.78;;
48363;SDS011;34170;54.364;18.582;2023-02-10T15:29:11;22.67;;;5.35;;
48363;SDS011;34170;54.364;18.582;2023-02-10T15:31:40;21.90;;;5.20;;
48363;SDS011;34170;54.364;18.582;2023-02-10T15:34:17;26.05;;;5.40;;
48363;SDS011;34170;54.364;18.582;2023-02-10T15:37:05;21.13;;;5.03;;
48363;SDS011;34170;54.364;18.582;2023-02-10T15:39:53;17.77;;;5.28;;
48363;SDS011;34170;54.364;18.582;2023-02-10T15:42:23;21.85;;;7.03;;
48363;SDS011;34170;54.364;18.582;2023-02-10T15:45:00;27.45;;;6.05;;
48363;SDS011;34170;54.364;18.582;2023-02-10T15:47:46;24.63;;;5.53;;
48363;SDS011;34170;54.364;18.582;2023-02-10T15:50:20;30.45;;;6.85;;
48363;SDS011;34170;54.364;18.582;2023-02-10T15:52:48;22.30;;;6.85;;
48363;SDS011;34170;54.364;18.582;2023-02-10T15:55:17;26.98;;;6.97;;
48363;SDS011;34170;54.364;18.582;2023-02-10T15:57:51;29.30;;;7.88;;
48363;SDS011;34170;54.364;18.582;2023-02-10T16:00:21;18.33;;;5.20;;
48363;SDS011;34170;54.364;18.582;2023-02-10T16:02:53;19.27;;;5.30;;
48363;SDS011;34170;54.364;18.582;2023-02-10T16:05:23;25.42;;;6.07;;
48363;SDS011;34170;54.364;18.582;2023-02-10T16:07:51;20.23;;;5.85;;
48363;SDS011;34170;54.364;18.582;2023-02-10T16:10:23;24.52;;;5.95;;
48363;SDS011;34170;54.364;18.582;2023-02-10T16:12:51;29.02;;;6.95;;
48363;SDS011;34170;54.364;18.582;2023-02-10T16:15:20;32.13;;;8.25;;
48363;SDS011;34170;54.364;18.582;2023-02-10T16:17:50;22.98;;;6.78;;
48363;SDS011;34170;54.364;18.582;2023-02-10T16:20:29;18.52;;;5.45;;
48363;SDS011;34170;54.364;18.582;2023-02-10T16:22:58;27.10;;;6.25;;